Time;durP1;ratioP1;P1;durP2;ratioP2;P2;SDS_P1;SDS_P2;PMS_P1;PMS_P2;Temp;Humidity;BMP_temperature;BMP_pressure;BME280_temperature;BME280_humidity;BME280_pressure;Samples;Min_cycle;Max_cycle;Signal;HPM_P1;HPM_P2
2022/06/22 00:00:18;;;;;;;4.57;4.38;;;;;;;-143.83;100.00;62900.06;5033811;28;20029;-61
2022/06/22 00:02:47;;;;;;;4.82;4.63;;;;;;;-143.83;100.00;62900.06;5028617;28;20033;-62
2022/06/22 00:05:21;;;;;;;4.70;4.50;;;;;;;-143.83;100.00;62900.06;5033400;28;20126;-62
2022/06/22 00:07:53;;;;;;;4.60;4.40;;;;;;;-143.83;100.00;62900.06;5032454;28;20045;-61
2022/06/22 00:10:28;;;;;;;4.70;4.50;;;;;;;-143.83;100.00;62900.06;5033146;28;20056;-61
2022/06/22 00:12:56;;;;;;;4.70;4.50;;;;;;;-143.83;100.00;62900.06;5021419;28;20014;-61
2022/06/22 00:15:31;;;;;;;4.57;4.38;;;;;;;-143.83;100.00;62900.06;5032125;28;20046;-62
2022/06/22 00:17:56;;;;;;;4.60;4.40;;;;;;;-143.83;100.00;62900.06;5022028;28;20440;-61
2022/06/22 00:20:26;;;;;;;4.70;4.50;;;;;;;-143.83;100.00;62900.06;5031928;28;20108;-60
2022/06/22 00:22:52;;;;;;;4.70;4.50;;;;;;;-143.83;100.00;62900.06;5031563;28;20116;-61
2022/06/22 00:25:36;;;;;;;4.70;4.50;;;;;;;-143.83;100.00;62900.06;5029860;28;20057;-62
2022/06/22 00:28:25;;;;;;;4.63;4.43;;;;;;;-143.83;100.00;62900.06;5033065;28;20087;-62
2022/06/22 00:31:03;;;;;;;4.63;4.43;;;;;;;-143.83;100.00;62900.06;5032942;28;20032;-61
2022/06/22 00:33:29;;;;;;;4.60;4.40;;;;;;;-143.83;100.00;62900.06;5028662;28;20107;-61
2022/06/22 00:36:12;;;;;;;4.63;4.43;;;;;;;-143.83;100.00;62900.06;5032732;28;20044;-62
2022/06/22 00:38:39;;;;;;;4.60;4.40;;;;;;;-143.83;100.00;62900.06;5021227;28;20033;-61
2022/06/22 00:41:32;;;;;;;4.70;4.50;;;;;;;-143.83;100.00;62900.06;5031850;28;20534;-60
2022/06/22 00:44:07;;;;;;;4.65;4.45;;;;;;;-143.83;100.00;62900.06;5030210;28;20171;-60
2022/06/22 00:46:33;;;;;;;4.60;4.40;;;;;;;-143.83;100.00;62900.06;5032641;28;20032;-61
2022/06/22 00:49:09;;;;;;;4.60;4.40;;;;;;;-143.83;100.00;62900.06;5030917;28;20045;-61
2022/06/22 00:51:39;;;;;;;4.63;4.43;;;;;;;-143.83;100.00;62900.06;5020451;28;20550;-61
2022/06/22 00:54:09;;;;;;;4.45;4.25;;;;;;;-143.83;100.00;62900.06;5032807;28;20447;-62
2022/06/22 00:56:52;;;;;;;4.57;4.38;;;;;;;-143.83;100.00;62900.06;5031638;28;20599;-61
2022/06/22 00:59:23;;;;;;;4.60;4.40;;;;;;;-143.83;100.00;62900.06;5032554;28;20037;-61
2022/06/22 01:02:15;;;;;;;4.50;4.30;;;;;;;-143.83;100.00;62900.06;5019737;28;20108;-61
2022/06/22 01:05:01;;;;;;;4.60;4.40;;;;;;;-143.83;100.00;62900.06;5024215;28;20029;-62
2022/06/22 01:07:29;;;;;;;4.55;4.35;;;;;;;-143.83;100.00;62900.06;5022939;28;20029;-60
2022/06/22 01:10:05;;;;;;;4.57;4.38;;;;;;;-143.83;100.00;62900.06;5032175;28;20036;-62
2022/06/22 01:12:33;;;;;;;4.65;4.45;;;;;;;-143.83;100.00;62900.06;5031674;28;20040;-62
2022/06/22 01:15:22;;;;;;;4.50;4.30;;;;;;;-143.83;100.00;62900.06;5031372;28;20064;-62
2022/06/22 01:18:11;;;;;;;4.60;4.40;;;;;;;-143.83;100.00;62900.06;5032332;28;20032;-62
2022/06/22 01:20:55;;;;;;;4.55;4.35;;;;;;;-143.83;100.00;62900.06;5031945;28;20055;-62
2022/06/22 01:23:52;;;;;;;4.50;4.30;;;;;;;-143.83;100.00;62900.06;5033154;28;20481;-60
2022/06/22 01:26:52;;;;;;;4.60;4.40;;;;;;;-143.83;100.00;62900.06;5010512;28;20045;-61
2022/06/22 01:29:25;;;;;;;4.45;4.25;;;;;;;-143.83;100.00;62900.06;5021226;28;20060;-60
2022/06/22 01:32:06;;;;;;;4.50;4.30;;;;;;;-143.83;100.00;62900.06;5030412;28;20029;-61
2022/06/22 01:34:45;;;;;;;4.47;4.28;;;;;;;-143.83;100.00;62900.06;5018918;28;20084;-61
2022/06/22 01:37:24;;;;;;;4.57;4.38;;;;;;;-143.83;100.00;62900.06;5031543;28;20116;-61
2022/06/22 01:39:50;;;;;;;4.45;4.25;;;;;;;-143.83;100.00;62900.06;5030937;28;20501;-62
2022/06/22 01:42:26;;;;;;;4.40;4.20;;;;;;;-143.83;100.00;62900.06;5027307;28;20025;-60
2022/06/22 01:45:04;;;;;;;4.32;4.15;;;;;;;-143.83;100.00;62900.06;5031546;28;20103;-60
2022/06/22 01:47:51;;;;;;;4.50;4.30;;;;;;;-143.83;100.00;62900.06;5030869;28;20025;-61
2022/06/22 01:50:37;;;;;;;4.55;4.35;;;;;;;-143.83;100.00;62900.06;5021967;28;20053;-62
2022/06/22 01:53:25;;;;;;;4.40;4.20;;;;;;;-143.83;100.00;62900.06;5031662;28;20543;-62
2022/06/22 01:55:54;;;;;;;4.40;4.20;;;;;;;-143.83;100.00;62900.06;5030677;28;20547;-60
2022/06/22 01:58:19;;;;;;;4.60;4.40;;;;;;;-143.83;100.00;62900.06;5029918;28;20489;-62
2022/06/22 02:00:57;;;;;;;4.57;4.38;;;;;;;-143.83;100.00;62900.06;5031644;28;20026;-62
2022/06/22 02:03:34;;;;;;;4.57;4.38;;;;;;;-143.83;100.00;62900.06;5031459;28;20177;-62
2022/06/22 02:07:44;;;;;;;4.57;4.38;;;;;;;-143.83;100.00;62900.06;5030621;28;20030;-62
2022/06/22 02:09:06;;;;;;;4.40;4.20;;;;;;;-143.83;100.00;62900.06;5030354;28;20497;-61
2022/06/22 02:11:39;;;;;;;4.35;4.15;;;;;;;-143.83;100.00;62900.06;5031401;28;20083;-62
2022/06/22 02:14:26;;;;;;;4.63;4.43;;;;;;;-143.83;100.00;62900.06;5022090;28;20033;-62
2022/06/22 02:17:01;;;;;;;4.55;4.35;;;;;;;-143.83;100.00;62900.06;5027028;28;20033;-61
2022/06/22 02:19:29;;;;;;;4.60;4.40;;;;;;;-143.83;100.00;62900.06;5026683;28;20028;-61
2022/06/22 02:21:57;;;;;;;4.32;4.13;;;;;;;-143.83;100.00;62900.06;5026921;28;20034;-60
2022/06/22 02:24:29;;;;;;;4.50;4.30;;;;;;;-143.83;100.00;62900.06;5021669;28;20512;-62
2022/06/22 02:27:10;;;;;;;4.50;4.30;;;;;;;-143.83;100.00;62900.06;5031528;28;20060;-61
2022/06/22 02:29:46;;;;;;;4.60;4.40;;;;;;;-143.83;100.00;62900.06;5018311;28;20385;-61
2022/06/22 02:32:17;;;;;;;4.60;4.40;;;;;;;-143.83;100.00;62900.06;5029033;28;20053;-61
2022/06/22 02:34:47;;;;;;;4.60;4.40;;;;;;;-143.83;100.00;62900.06;5031133;28;20021;-61
2022/06/22 02:37:14;;;;;;;4.60;4.40;;;;;;;-143.83;100.00;62900.06;5031158;28;20032;-61
2022/06/22 02:39:46;;;;;;;4.55;4.35;;;;;;;-143.83;100.00;62900.06;5029476;28;20029;-61
2022/06/22 02:44:58;;;;;;;4.70;4.50;;;;;;;-143.83;100.00;62900.06;5035129;28;20105;-62
2022/06/22 02:47:42;;;;;;;4.80;4.60;;;;;;;-143.83;100.00;62900.06;5022155;28;20120;-62
2022/06/22 02:50:34;;;;;;;4.77;4.57;;;;;;;-143.83;100.00;62900.06;5035030;28;20058;-60
2022/06/22 02:53:24;;;;;;;4.90;4.70;;;;;;;-143.83;100.00;62900.06;5013470;28;20267;-60
2022/06/22 02:55:53;;;;;;;4.72;4.53;;;;;;;-143.83;100.00;62900.06;5022463;28;20041;-61
2022/06/22 02:58:37;;;;;;;4.78;4.57;;;;;;;-143.83;100.00;62900.06;5034860;28;20385;-60
2022/06/22 03:01:12;;;;;;;4.97;4.78;;;;;;;-143.83;100.00;62900.06;5034650;28;20365;-61
2022/06/22 03:03:42;;;;;;;5.00;4.80;;;;;;;-143.83;100.00;62900.06;5029676;28;20176;-61
2022/06/22 03:06:11;;;;;;;5.18;4.97;;;;;;;-143.83;100.00;62900.06;5034819;28;20036;-61
2022/06/22 03:08:37;;;;;;;5.30;5.10;;;;;;;-143.83;100.00;62900.06;5034393;28;20079;-60
2022/06/22 03:11:09;;;;;;;5.50;5.30;;;;;;;-143.83;100.00;62900.06;5034485;28;20025;-61
2022/06/22 03:13:44;;;;;;;5.47;5.28;;;;;;;-143.83;100.00;62900.06;5032607;28;20071;-62
2022/06/22 03:16:38;;;;;;;5.50;5.30;;;;;;;-143.83;100.00;62900.06;5031069;28;20448;-61
2022/06/22 03:19:15;;;;;;;5.35;5.15;;;;;;;-143.83;100.00;62900.06;5034176;28;20056;-61
2022/06/22 03:21:42;;;;;;;5.50;5.30;;;;;;;-143.83;100.00;62900.06;5032654;28;20082;-61
2022/06/22 03:24:44;;;;;;;5.60;5.40;;;;;;;-143.83;100.00;62900.06;5034423;28;20064;-62
2022/06/22 03:27:16;;;;;;;5.70;5.50;;;;;;;-143.83;100.00;62900.06;5032641;28;20077;-60
2022/06/22 03:29:52;;;;;;;5.70;5.50;;;;;;;-143.83;100.00;62900.06;5033072;28;20481;-61
2022/06/22 03:32:24;;;;;;;5.70;5.50;;;;;;;-143.83;100.00;62900.06;5033995;28;20030;-61
2022/06/22 03:35:08;;;;;;;5.63;5.43;;;;;;;-143.83;100.00;62900.06;5033829;28;20446;-61
2022/06/22 03:37:38;;;;;;;5.53;5.32;;;;;;;-143.83;100.00;62900.06;5025515;28;20110;-61
2022/06/22 03:40:12;;;;;;;5.45;5.25;;;;;;;-143.83;100.00;62900.06;5028727;28;20444;-61
2022/06/22 03:42:44;;;;;;;5.63;5.43;;;;;;;-143.83;100.00;62900.06;5032311;28;20037;-60
2022/06/22 03:45:13;;;;;;;5.60;5.40;;;;;;;-143.83;100.00;62900.06;5033984;28;20255;-61
2022/06/22 03:47:42;;;;;;;5.70;5.50;;;;;;;-143.83;100.00;62900.06;5023638;28;20034;-60
2022/06/22 03:50:57;;;;;;;5.40;5.20;;;;;;;-143.83;100.00;62900.06;5025326;28;20049;-63
2022/06/22 03:53:37;;;;;;;5.72;5.53;;;;;;;-143.83;100.00;62900.06;5028831;28;20045;-62
2022/06/22 03:56:15;;;;;;;5.72;5.53;;;;;;;-143.83;100.00;62900.06;5031831;28;20049;-63
2022/06/22 03:58:44;;;;;;;5.70;5.50;;;;;;;-143.83;100.00;62900.06;5032177;28;20036;-64
2022/06/22 04:01:11;;;;;;;5.78;5.57;;;;;;;-143.83;100.00;62900.06;5033192;28;20373;-63
2022/06/22 04:03:37;;;;;;;5.80;5.60;;;;;;;-143.83;100.00;62900.06;5024934;28;20033;-63
2022/06/22 04:06:05;;;;;;;5.70;5.50;;;;;;;-143.83;100.00;62900.06;5021092;28;20033;-63
2022/06/22 04:08:36;;;;;;;5.80;5.60;;;;;;;-143.83;100.00;62900.06;5032605;28;20033;-63
2022/06/22 04:11:08;;;;;;;5.80;5.60;;;;;;;-143.83;100.00;62900.06;5033336;28;20033;-63
2022/06/22 04:13:47;;;;;;;5.70;5.50;;;;;;;-143.83;100.00;62900.06;5029376;28;20115;-64
2022/06/22 04:16:18;;;;;;;5.80;5.60;;;;;;;-143.83;100.00;62900.06;5033096;28;20069;-63
2022/06/22 04:19:00;;;;;;;5.68;5.47;;;;;;;-143.83;100.00;62900.06;5023288;28;20500;-63
2022/06/22 04:21:34;;;;;;;5.90;5.70;;;;;;;-143.83;100.00;62900.06;5028283;28;20044;-64
2022/06/22 04:24:13;;;;;;;5.70;5.50;;;;;;;-143.83;100.00;62900.06;5033427;28;20727;-63
2022/06/22 04:26:50;;;;;;;5.63;5.43;;;;;;;-143.83;100.00;62900.06;5031399;28;20041;-61
2022/06/22 04:29:22;;;;;;;5.68;5.47;;;;;;;-143.83;100.00;62900.06;5027018;28;20026;-62
2022/06/22 04:31:59;;;;;;;5.80;5.60;;;;;;;-143.83;100.00;62900.06;5032286;28;20374;-62
2022/06/22 04:34:37;;;;;;;5.90;5.70;;;;;;;-143.83;100.00;62900.06;5026752;28;20026;-62
2022/06/22 04:37:09;;;;;;;5.80;5.60;;;;;;;-143.83;100.00;62900.06;5032524;28;20025;-61
2022/06/22 04:39:47;;;;;;;6.03;5.82;;;;;;;-143.83;100.00;62900.06;5031472;28;20029;-60
2022/06/22 04:42:13;;;;;;;6.00;5.80;;;;;;;-143.83;100.00;62900.06;5028786;28;20106;-62
2022/06/22 04:44:46;;;;;;;5.80;5.60;;;;;;;-143.83;100.00;62900.06;5031696;28;20108;-62
2022/06/22 04:47:20;;;;;;;6.22;5.93;;;;;;;-143.83;100.00;62900.06;5023108;28;20033;-62
2022/06/22 04:49:54;;;;;;;6.00;5.80;;;;;;;-143.83;100.00;62900.06;5026091;28;20065;-62
2022/06/22 04:52:50;;;;;;;5.85;5.65;;;;;;;-143.83;100.00;62900.06;5024256;28;20029;-62
2022/06/22 04:55:20;;;;;;;5.82;5.63;;;;;;;-143.83;100.00;62900.06;5018369;28;20116;-62
2022/06/22 04:57:50;;;;;;;5.88;5.68;;;;;;;-143.83;100.00;62900.06;5032341;28;20079;-62
2022/06/22 05:00:24;;;;;;;5.93;5.72;;;;;;;-143.83;100.00;62900.06;5029172;28;20021;-62
2022/06/22 05:03:07;;;;;;;5.70;5.50;;;;;;;-143.83;100.00;62900.06;5021618;28;20030;-61
2022/06/22 05:05:34;;;;;;;5.80;5.60;;;;;;;-143.83;100.00;62900.06;5036691;28;20113;-61
2022/06/22 05:08:07;;;;;;;5.95;5.75;;;;;;;-143.83;100.00;62900.06;5032368;28;20037;-61
2022/06/22 05:10:57;;;;;;;6.00;5.80;;;;;;;-143.83;100.00;62900.06;5031950;28;20026;-61
2022/06/22 05:13:23;;;;;;;6.00;5.80;;;;;;;-143.83;100.00;62900.06;5030896;28;20061;-60
2022/06/22 05:15:52;;;;;;;5.90;5.70;;;;;;;-143.83;100.00;62900.06;5032034;28;20063;-63
2022/06/22 05:18:24;;;;;;;5.90;5.70;;;;;;;-143.83;100.00;62900.06;5019973;28;20060;-62
2022/06/22 05:21:23;;;;;;;5.90;5.70;;;;;;;-143.83;100.00;62900.06;5032453;28;20041;-63
2022/06/22 05:23:54;;;;;;;5.78;5.57;;;;;;;-143.83;100.00;62900.06;5020911;28;20403;-62
2022/06/22 05:26:24;;;;;;;6.00;5.80;;;;;;;-143.83;100.00;62900.06;5015910;28;20026;-62
2022/06/22 05:29:12;;;;;;;6.05;5.85;;;;;;;-143.83;100.00;62900.06;5021601;28;20145;-60
2022/06/22 05:31:42;;;;;;;6.00;5.80;;;;;;;-143.83;100.00;62900.06;5034832;28;20044;-62
2022/06/22 05:34:21;;;;;;;5.80;5.60;;;;;;;-143.83;100.00;62900.06;5025065;28;20060;-61
2022/06/22 05:36:52;;;;;;;6.00;5.80;;;;;;;-143.83;100.00;62900.06;5019770;28;20112;-62
2022/06/22 05:39:17;;;;;;;5.90;5.70;;;;;;;-143.83;100.00;62900.06;5023532;28;20075;-62
2022/06/22 05:41:46;;;;;;;6.00;5.80;;;;;;;-143.83;100.00;62900.06;5024196;28;20112;-62
2022/06/22 05:44:15;;;;;;;5.90;5.70;;;;;;;-143.83;100.00;62900.06;5025465;28;20021;-63
2022/06/22 05:47:10;;;;;;;6.00;5.80;;;;;;;-143.83;100.00;62900.06;5026608;28;20405;-62
2022/06/22 05:49:45;;;;;;;5.85;5.65;;;;;;;-143.83;100.00;62900.06;5026731;28;20048;-61
2022/06/22 05:52:21;;;;;;;5.90;5.70;;;;;;;-143.83;100.00;62900.06;5026677;28;20031;-62
2022/06/22 05:54:54;;;;;;;5.90;5.70;;;;;;;-143.83;100.00;62900.06;5022030;28;21547;-64
2022/06/22 05:57:22;;;;;;;5.65;5.45;;;;;;;-143.83;100.00;62900.06;5017124;28;20060;-62
2022/06/22 06:00:05;;;;;;;5.90;5.70;;;;;;;-143.83;100.00;62900.06;5024292;28;20112;-62
2022/06/22 06:02:43;;;;;;;5.80;5.60;;;;;;;-143.83;100.00;62900.06;5032937;28;20042;-62
2022/06/22 06:05:24;;;;;;;5.80;5.60;;;;;;;-143.83;100.00;62900.06;5029935;28;20035;-63
2022/06/22 06:07:53;;;;;;;6.10;5.90;;;;;;;-143.83;100.00;62900.06;5023253;28;20084;-61
2022/06/22 06:10:31;;;;;;;6.03;5.82;;;;;;;-143.83;100.00;62900.06;5032076;28;20075;-60
2022/06/22 06:13:02;;;;;;;5.72;5.53;;;;;;;-143.83;100.00;62900.06;5015877;28;20018;-64
2022/06/22 06:15:34;;;;;;;5.90;5.70;;;;;;;-143.83;100.00;62900.06;5023443;28;20036;-62
2022/06/22 06:18:01;;;;;;;5.90;5.70;;;;;;;-143.83;100.00;62900.06;5023407;28;20033;-68
2022/06/22 06:20:34;;;;;;;5.70;5.50;;;;;;;-143.83;100.00;62900.06;5020562;28;20034;-60
2022/06/22 06:23:30;;;;;;;5.45;5.25;;;;;;;-143.83;100.00;62900.06;5032596;28;20038;-61
2022/06/22 06:29:10;;;;;;;5.40;5.20;;;;;;;-143.83;100.00;62900.06;5025326;28;20083;-61
2022/06/22 06:31:56;;;;;;;5.40;5.20;;;;;;;-143.83;100.00;62900.06;5034185;28;20025;-61
2022/06/22 06:34:33;;;;;;;5.25;5.05;;;;;;;-143.83;100.00;62900.06;5035033;28;20263;-61
2022/06/22 06:37:07;;;;;;;5.20;5.00;;;;;;;-143.83;100.00;62900.06;5020783;28;20025;-61
2022/06/22 06:39:37;;;;;;;5.38;5.18;;;;;;;-143.83;100.00;62900.06;5033731;28;20030;-60
2022/06/22 06:42:28;;;;;;;5.28;5.07;;;;;;;-143.83;100.00;62900.06;5034398;28;20029;-62
2022/06/22 06:44:55;;;;;;;5.30;5.10;;;;;;;-143.83;100.00;62900.06;5034536;28;20026;-60
2022/06/22 06:47:28;;;;;;;5.20;5.00;;;;;;;-143.83;100.00;62900.06;5034600;28;20405;-62
2022/06/22 06:50:12;;;;;;;5.28;5.07;;;;;;;-143.83;100.00;62900.06;5034720;28;20092;-62
2022/06/22 06:53:02;;;;;;;5.22;5.03;;;;;;;-143.83;100.00;62900.06;5034772;28;20060;-61
2022/06/22 06:55:37;;;;;;;5.15;4.95;;;;;;;-143.83;100.00;62900.06;5033560;28;20128;-61
2022/06/22 06:58:24;;;;;;;5.13;4.93;;;;;;;-143.83;100.00;62900.06;5034097;28;20052;-62
2022/06/22 07:00:51;;;;;;;5.15;4.95;;;;;;;-143.83;100.00;62900.06;5030485;28;20025;-61
2022/06/22 07:03:31;;;;;;;5.30;5.10;;;;;;;-143.83;100.00;62900.06;5015525;28;20029;-62
2022/06/22 07:05:57;;;;;;;5.20;5.00;;;;;;;-143.83;100.00;62900.06;5018299;28;20156;-61
2022/06/22 07:08:30;;;;;;;5.30;5.10;;;;;;;-143.83;100.00;62900.06;5028591;28;20112;-62
2022/06/22 07:10:58;;;;;;;5.38;5.18;;;;;;;-143.83;100.00;62900.06;5023157;28;20041;-62
2022/06/22 07:13:46;;;;;;;5.30;5.10;;;;;;;-143.83;100.00;62900.06;5029936;28;20397;-62
2022/06/22 07:16:16;;;;;;;5.20;5.00;;;;;;;-143.83;100.00;62900.06;5026092;28;20030;-63
2022/06/22 07:18:53;;;;;;;5.30;5.10;;;;;;;-143.83;100.00;62900.06;5026231;28;20476;-62
2022/06/22 07:21:33;;;;;;;5.30;5.10;;;;;;;-143.83;100.00;62900.06;5021066;28;20037;-62
2022/06/22 07:23:58;;;;;;;5.30;5.10;;;;;;;-143.83;100.00;62900.06;5027638;28;20037;-62
2022/06/22 07:26:44;;;;;;;5.30;5.10;;;;;;;-143.83;100.00;62900.06;5028774;28;20511;-62
2022/06/22 07:29:36;;;;;;;5.18;4.97;;;;;;;-143.83;100.00;62900.06;5023328;28;20052;-61
2022/06/22 07:32:12;;;;;;;5.35;5.15;;;;;;;-143.83;100.00;62900.06;5022429;28;20052;-63
2022/06/22 07:35:01;;;;;;;5.43;5.22;;;;;;;-143.83;100.00;62900.06;5023804;28;20037;-63
2022/06/22 07:37:32;;;;;;;5.30;5.10;;;;;;;-143.83;100.00;62900.06;5024525;28;20111;-62
2022/06/22 07:40:07;;;;;;;5.45;5.25;;;;;;;-143.83;100.00;62900.06;5024967;28;20440;-62
2022/06/22 07:42:33;;;;;;;5.30;5.10;;;;;;;-143.83;100.00;62900.06;5025789;28;20044;-62
2022/06/22 07:44:59;;;;;;;5.30;5.10;;;;;;;-143.83;100.00;62900.06;5024841;28;20022;-65
2022/06/22 07:47:38;;;;;;;5.25;5.05;;;;;;;-143.83;100.00;62900.06;5029566;28;20083;-62
2022/06/22 07:50:16;;;;;;;5.32;5.13;;;;;;;-143.83;100.00;62900.06;5020428;28;20057;-63
2022/06/22 07:52:50;;;;;;;5.20;5.00;;;;;;;-143.83;100.00;62900.06;5028753;28;20060;-63
2022/06/22 07:55:39;;;;;;;5.45;5.25;;;;;;;-143.83;100.00;62900.06;5026984;28;20025;-62
2022/06/22 07:58:27;;;;;;;5.35;5.15;;;;;;;-143.83;100.00;62900.06;5025148;28;20437;-63
2022/06/22 08:00:59;;;;;;;5.45;5.25;;;;;;;-143.83;100.00;62900.06;5018234;28;20036;-63
2022/06/22 08:03:34;;;;;;;5.30;5.10;;;;;;;-143.83;100.00;62900.06;5021798;28;20112;-63
2022/06/22 08:06:08;;;;;;;5.43;5.22;;;;;;;-143.83;100.00;62900.06;5031224;28;20049;-63
2022/06/22 08:08:52;;;;;;;5.60;5.40;;;;;;;-143.83;100.00;62900.06;5033728;28;20033;-65
2022/06/22 08:11:27;;;;;;;5.35;5.15;;;;;;;-143.83;100.00;62900.06;5026554;28;20030;-65
2022/06/22 08:14:00;;;;;;;5.50;5.30;;;;;;;-143.83;100.00;62900.06;5024384;28;20905;-65
2022/06/22 08:16:34;;;;;;;5.40;5.20;;;;;;;-143.83;100.00;62900.06;5017632;28;20029;-63
2022/06/22 08:19:01;;;;;;;5.40;5.20;;;;;;;-143.83;100.00;62900.06;5015426;28;20548;-64
2022/06/22 08:21:27;;;;;;;5.30;5.10;;;;;;;-143.83;100.00;62900.06;5020304;28;20038;-65
2022/06/22 08:23:57;;;;;;;5.40;5.20;;;;;;;-143.83;100.00;62900.06;5019898;28;20022;-65
2022/06/22 08:26:31;;;;;;;5.53;5.32;;;;;;;-143.83;100.00;62900.06;5024146;28;20061;-64
2022/06/22 08:29:00;;;;;;;5.40;5.20;;;;;;;-143.83;100.00;62900.06;5029317;28;20034;-63
2022/06/22 08:31:31;;;;;;;5.50;5.30;;;;;;;-143.83;100.00;62900.06;5024574;28;20038;-63
2022/06/22 08:34:01;;;;;;;5.60;5.40;;;;;;;-143.83;100.00;62900.06;5020149;28;20036;-64
2022/06/22 08:36:30;;;;;;;5.60;5.40;;;;;;;-143.83;100.00;62900.06;5027853;28;20033;-63
2022/06/22 08:39:11;;;;;;;5.50;5.30;;;;;;;-143.83;100.00;62900.06;5026747;28;20457;-64
2022/06/22 08:42:02;;;;;;;5.60;5.40;;;;;;;-143.83;100.00;62900.06;5024368;28;20104;-66
2022/06/22 08:44:44;;;;;;;5.60;5.40;;;;;;;-143.83;100.00;62900.06;5023391;28;20052;-64
2022/06/22 08:47:31;;;;;;;5.32;5.13;;;;;;;-143.83;100.00;62900.06;5026131;28;20033;-64
2022/06/22 08:50:08;;;;;;;5.60;5.40;;;;;;;-143.83;100.00;62900.06;5021572;28;20504;-65
2022/06/22 08:52:40;;;;;;;5.50;5.30;;;;;;;-143.83;100.00;62900.06;5017319;28;20030;-62
2022/06/22 08:55:08;;;;;;;5.50;5.30;;;;;;;-143.83;100.00;62900.06;5028057;28;20765;-64
2022/06/22 08:57:51;;;;;;;5.30;5.10;;;;;;;-143.83;100.00;62900.06;5028101;28;20037;-65
2022/06/22 09:00:32;;;;;;;5.45;5.25;;;;;;;-143.83;100.00;62900.06;5026457;28;20048;-64
2022/06/22 09:03:30;;;;;;;5.28;5.07;;;;;;;-143.83;100.00;62900.06;5027432;28;20095;-65
2022/06/22 09:06:10;;;;;;;5.20;5.00;;;;;;;-143.83;100.00;62900.06;5010908;28;20041;-64
2022/06/22 09:09:00;;;;;;;5.22;5.03;;;;;;;-143.83;100.00;62900.06;5020098;28;20393;-63
2022/06/22 09:11:40;;;;;;;5.28;5.07;;;;;;;-143.83;100.00;62900.06;5024399;28;20021;-62
2022/06/22 09:14:40;;;;;;;5.40;5.20;;;;;;;-143.83;100.00;62900.06;5030158;28;20065;-63
2022/06/22 09:17:39;;;;;;;5.30;5.10;;;;;;;-143.83;100.00;62900.06;5022270;28;20125;-63
2022/06/22 09:20:39;;;;;;;5.30;5.10;;;;;;;-143.83;100.00;62900.06;5028044;28;20113;-63
2022/06/22 09:23:31;;;;;;;5.30;5.10;;;;;;;-143.83;100.00;62900.06;5033537;28;20052;-62
2022/06/22 09:26:18;;;;;;;5.32;5.13;;;;;;;-143.83;100.00;62900.06;5019381;28;20021;-62
2022/06/22 09:28:57;;;;;;;5.30;5.10;;;;;;;-143.83;100.00;62900.06;5026422;28;20034;-62
2022/06/22 09:31:40;;;;;;;5.30;5.10;;;;;;;-143.83;100.00;62900.06;5024257;28;20033;-63
2022/06/22 09:34:40;;;;;;;5.20;5.00;;;;;;;-143.83;100.00;62900.06;5029096;28;20040;-63
2022/06/22 09:37:37;;;;;;;5.00;4.80;;;;;;;-143.83;100.00;62900.06;4998397;28;20133;-63
2022/06/22 09:40:23;;;;;;;5.30;5.10;;;;;;;-143.83;100.00;62900.06;5014976;28;20042;-62
2022/06/22 09:43:07;;;;;;;5.20;5.00;;;;;;;-143.83;100.00;62900.06;5018449;28;20034;-63
2022/06/22 09:45:48;;;;;;;5.23;5.03;;;;;;;-143.83;100.00;62900.06;5024604;28;20033;-63
2022/06/22 09:48:49;;;;;;;5.30;5.10;;;;;;;-143.83;100.00;62900.06;5026453;28;20448;-64
2022/06/22 09:51:23;;;;;;;5.20;5.00;;;;;;;-143.83;100.00;62900.06;4983852;28;20081;-62
2022/06/22 09:56:19;;;;;;;;;;;;;;;-143.83;100.00;62900.06;5020800;28;20096;-62
2022/06/22 09:57:32;;;;;;;5.18;4.97;;;;;;;-143.83;100.00;62900.06;5018873;28;20443;-60
2022/06/22 10:00:20;;;;;;;5.30;5.10;;;;;;;-143.83;100.00;62900.06;5002700;28;20056;-63
2022/06/22 10:03:21;;;;;;;5.20;5.00;;;;;;;-143.83;100.00;62900.06;5021746;28;20052;-63
2022/06/22 10:06:13;;;;;;;5.40;5.20;;;;;;;-143.83;100.00;62900.06;5005437;28;20033;-62
2022/06/22 10:08:57;;;;;;;5.28;5.07;;;;;;;-143.83;100.00;62900.06;5023413;28;20501;-62
2022/06/22 10:11:31;;;;;;;5.40;5.20;;;;;;;-143.83;100.00;62900.06;5025370;28;20033;-62
2022/06/22 10:14:39;;;;;;;5.30;5.10;;;;;;;-143.83;100.00;62900.06;5030790;28;20025;-61
2022/06/22 10:17:26;;;;;;;5.40;5.20;;;;;;;-143.83;100.00;62900.06;5016437;28;20072;-61
2022/06/22 10:20:04;;;;;;;5.20;5.00;;;;;;;-143.83;100.00;62900.06;5020958;28;20053;-62
2022/06/22 10:23:05;;;;;;;5.30;5.10;;;;;;;-143.83;100.00;62900.06;5030650;28;20034;-60
2022/06/22 10:25:56;;;;;;;5.30;5.10;;;;;;;-143.83;100.00;62900.06;4991324;28;20073;-62
2022/06/22 10:28:50;;;;;;;5.20;5.00;;;;;;;-143.83;100.00;62900.06;5021054;28;20038;-62
2022/06/22 10:31:37;;;;;;;5.28;5.07;;;;;;;-143.83;100.00;62900.06;5021753;28;20474;-63
2022/06/22 10:34:30;;;;;;;5.40;5.20;;;;;;;-143.83;100.00;62900.06;5029681;28;20057;-61
2022/06/22 10:37:07;;;;;;;5.20;5.00;;;;;;;-143.83;100.00;62900.06;5030199;28;20037;-61
2022/06/22 10:39:59;;;;;;;5.30;5.10;;;;;;;-143.83;100.00;62900.06;5029877;28;20052;-61
2022/06/22 10:45:46;;;;;;;5.38;5.18;;;;;;;-143.83;100.00;62900.06;5026272;28;20071;-61
2022/06/22 10:48:32;;;;;;;5.13;4.93;;;;;;;-143.83;100.00;62900.06;5031091;28;20053;-61
2022/06/22 10:51:21;;;;;;;5.25;5.05;;;;;;;-143.83;100.00;62900.06;5029597;28;20133;-61
2022/06/22 10:54:18;;;;;;;5.10;4.90;;;;;;;-143.83;100.00;62900.06;5030317;28;20042;-62
2022/06/22 10:57:07;;;;;;;5.10;4.90;;;;;;;-143.83;100.00;62900.06;5030454;28;20045;-62
2022/06/22 10:59:50;;;;;;;5.13;4.93;;;;;;;-143.83;100.00;62900.06;5030684;28;20025;-61
2022/06/22 11:02:53;;;;;;;5.10;4.90;;;;;;;-143.83;100.00;62900.06;5030746;28;20045;-62
2022/06/22 11:05:40;;;;;;;5.03;4.82;;;;;;;-143.83;100.00;62900.06;5034094;28;20056;-62
2022/06/22 11:08:15;;;;;;;5.15;4.95;;;;;;;-143.83;100.00;62900.06;5026705;28;20029;-62
2022/06/22 11:10:59;;;;;;;5.10;4.90;;;;;;;-143.83;100.00;62900.06;5029895;28;20057;-62
2022/06/22 11:13:42;;;;;;;5.30;5.10;;;;;;;-143.83;100.00;62900.06;5034450;28;20604;-62
2022/06/22 11:16:23;;;;;;;5.25;5.05;;;;;;;-143.83;100.00;62900.06;5034180;28;20036;-61
2022/06/22 11:19:07;;;;;;;5.28;5.07;;;;;;;-143.83;100.00;62900.06;5034561;28;20104;-62
2022/06/22 11:22:04;;;;;;;5.18;4.97;;;;;;;-143.83;100.00;62900.06;5034783;28;20032;-61
2022/06/22 11:24:54;;;;;;;5.15;4.95;;;;;;;-143.83;100.00;62900.06;5033979;28;20047;-62
2022/06/22 11:31:17;;;;;;;5.00;4.80;;;;;;;-143.83;100.00;62900.06;5022793;28;20575;-62
2022/06/22 11:33:52;;;;;;;5.05;4.85;;;;;;;-143.83;100.00;62900.06;5034149;28;20040;-61
2022/06/22 11:36:47;;;;;;;5.07;4.88;;;;;;;-143.83;100.00;62900.06;5034036;28;20108;-62
2022/06/22 11:39:38;;;;;;;5.30;5.10;;;;;;;-143.83;100.00;62900.06;5033901;28;20025;-61
2022/06/22 11:42:18;;;;;;;5.10;4.90;;;;;;;-143.83;100.00;62900.06;5020578;28;20116;-62
2022/06/22 11:48:21;;;;;;;5.07;4.88;;;;;;;-143.83;100.00;62900.06;5033891;28;20045;-62
2022/06/22 11:51:24;;;;;;;5.20;5.00;;;;;;;-143.83;100.00;62900.06;5033713;28;20452;-61
2022/06/22 11:54:00;;;;;;;5.22;5.03;;;;;;;-143.83;100.00;62900.06;5033031;28;20801;-61
2022/06/22 11:56:41;;;;;;;5.07;4.88;;;;;;;-143.83;100.00;62900.06;5033459;28;20121;-61
2022/06/22 11:59:23;;;;;;;5.20;5.00;;;;;;;-143.83;100.00;62900.06;5033542;28;20017;-63
2022/06/22 12:02:14;;;;;;;5.07;4.88;;;;;;;-143.83;100.00;62900.06;5024634;28;20079;-62
2022/06/22 12:04:48;;;;;;;5.10;4.90;;;;;;;-143.83;100.00;62900.06;5033589;28;20026;-61
2022/06/22 12:07:31;;;;;;;5.20;5.00;;;;;;;-143.83;100.00;62900.06;5033092;28;20068;-62
2022/06/22 12:10:40;;;;;;;5.20;5.00;;;;;;;-143.83;100.00;62900.06;5033521;28;20174;-61
2022/06/22 12:13:11;;;;;;;5.10;4.90;;;;;;;-143.83;100.00;62900.06;5033292;28;20053;-62
2022/06/22 12:16:00;;;;;;;5.03;4.82;;;;;;;-143.83;100.00;62900.06;5033186;28;20026;-61
2022/06/22 12:18:47;;;;;;;5.20;5.00;;;;;;;-143.83;100.00;62900.06;5032005;28;20488;-61